createdAt,value
2023-05-01T00:00:16.601Z,1016.69
2023-05-01T00:01:16.589Z,1016.66
2023-05-01T00:02:16.639Z,1016.67
2023-05-01T00:03:18.652Z,1016.67
2023-05-01T00:04:16.809Z,1016.66
2023-05-01T00:05:16.562Z,1016.71
2023-05-01T00:06:16.578Z,1016.67
2023-05-01T00:07:16.579Z,1016.69
2023-05-01T00:08:17.575Z,1016.69
2023-05-01T00:09:18.576Z,1016.70
2023-05-01T00:10:16.571Z,1016.66
2023-05-01T00:11:16.545Z,1016.68
2023-05-01T00:12:16.582Z,1016.67
2023-05-01T00:13:16.522Z,1016.65
2023-05-01T00:14:16.533Z,1016.70
2023-05-01T00:15:17.547Z,1016.65
2023-05-01T00:16:16.594Z,1016.64
2023-05-01T00:17:17.017Z,1016.68
2023-05-01T00:18:16.565Z,1016.67
2023-05-01T00:19:17.511Z,1016.65
2023-05-01T00:20:16.498Z,1016.67
2023-05-01T00:21:17.506Z,1016.65
2023-05-01T00:22:16.493Z,1016.65
2023-05-01T00:23:16.481Z,1016.60
2023-05-01T00:24:16.500Z,1016.59
2023-05-01T00:25:16.514Z,1016.63
2023-05-01T00:26:16.481Z,1016.61
2023-05-01T00:27:17.481Z,1016.61
2023-05-01T00:28:17.011Z,1016.61
2023-05-01T00:29:16.454Z,1016.58
2023-05-01T00:30:16.459Z,1016.62
2023-05-01T00:31:16.535Z,1016.60
2023-05-01T00:32:16.629Z,1016.60
2023-05-01T00:33:17.491Z,1016.59
2023-05-01T00:34:17.020Z,1016.60
2023-05-01T00:35:17.025Z,1016.56
2023-05-01T00:36:16.462Z,1016.55
2023-05-01T00:37:16.422Z,1016.54
2023-05-01T00:38:17.021Z,1016.57
2023-05-01T00:39:17.477Z,1016.57
2023-05-01T00:40:16.464Z,1016.54
2023-05-01T00:41:17.019Z,1016.56
2023-05-01T00:42:16.498Z,1016.56
2023-05-01T00:43:16.408Z,1016.52
2023-05-01T00:44:16.429Z,1016.53
2023-05-01T00:45:17.402Z,1016.49
2023-05-01T00:46:17.648Z,1016.51
2023-05-01T00:47:17.578Z,1016.48
2023-05-01T00:48:16.424Z,1016.44
2023-05-01T00:49:16.886Z,1016.48
2023-05-01T00:50:16.373Z,1016.43
2023-05-01T00:51:17.400Z,1016.42
2023-05-01T00:52:16.390Z,1016.42
2023-05-01T00:53:17.576Z,1016.37
2023-05-01T00:54:16.429Z,1016.41
2023-05-01T00:55:16.370Z,1016.43
2023-05-01T00:56:16.353Z,1016.39
2023-05-01T00:57:17.352Z,1016.37
2023-05-01T00:58:16.330Z,1016.38
2023-05-01T00:59:16.345Z,1016.37
2023-05-01T01:00:16.347Z,1016.35
2023-05-01T01:01:16.370Z,1016.38
2023-05-01T01:02:17.033Z,1016.36
2023-05-01T01:03:17.365Z,1016.33
2023-05-01T01:04:16.357Z,1016.32
2023-05-01T01:05:16.354Z,1016.37
2023-05-01T01:06:16.372Z,1016.35
2023-05-01T01:07:16.304Z,1016.33
2023-05-01T01:08:17.058Z,1016.30
2023-05-01T01:09:17.295Z,1016.31
2023-05-01T01:10:16.282Z,1016.33
2023-05-01T01:11:17.019Z,1016.32
2023-05-01T01:12:16.302Z,1016.27
2023-05-01T01:13:17.023Z,1016.31
2023-05-01T01:14:17.597Z,1016.29
2023-05-01T01:15:17.302Z,1016.26
2023-05-01T01:16:16.313Z,1016.30
2023-05-01T01:17:17.082Z,1016.26
2023-05-01T01:18:16.287Z,1016.33
2023-05-01T01:19:16.257Z,1016.30
2023-05-01T01:20:16.244Z,1016.30
2023-05-01T01:21:17.296Z,1016.28
2023-05-01T01:22:17.018Z,1016.26
2023-05-01T01:23:16.222Z,1016.27
2023-05-01T01:24:16.209Z,1016.27
2023-05-01T01:25:16.197Z,1016.24
2023-05-01T01:26:16.214Z,1016.22
2023-05-01T01:27:17.202Z,1016.23
2023-05-01T01:28:16.208Z,1016.23
2023-05-01T01:29:16.290Z,1016.18
2023-05-01T01:30:16.185Z,1016.28
2023-05-01T01:31:16.247Z,1016.19
2023-05-01T01:32:16.167Z,1016.23
2023-05-01T01:33:17.180Z,1016.22
2023-05-01T01:34:17.112Z,1016.20
2023-05-01T01:35:17.278Z,1016.15
2023-05-01T01:36:16.195Z,1016.15
2023-05-01T01:37:17.608Z,1016.09
2023-05-01T01:38:16.158Z,1016.14
2023-05-01T01:39:18.024Z,1016.11
2023-05-01T01:40:16.203Z,1016.09
2023-05-01T01:41:16.120Z,1016.09
2023-05-01T01:42:16.121Z,1016.04
2023-05-01T01:43:16.123Z,1016.07
2023-05-01T01:44:16.119Z,1016.06
2023-05-01T01:45:17.164Z,1016.06
2023-05-01T01:46:16.146Z,1016.03
2023-05-01T01:47:16.094Z,1016.04
2023-05-01T01:48:16.101Z,1016.04
2023-05-01T01:49:18.498Z,1016.03
2023-05-01T01:50:16.088Z,1016.05
2023-05-01T01:51:17.095Z,1016.03
2023-05-01T01:52:16.076Z,1016.05
2023-05-01T01:53:16.072Z,1015.97
2023-05-01T01:54:16.073Z,1015.98
2023-05-01T01:55:16.088Z,1015.97
2023-05-01T01:56:16.066Z,1015.95
2023-05-01T01:57:17.056Z,1015.95
2023-05-01T01:58:16.080Z,1015.92
2023-05-01T01:59:16.082Z,1015.98
2023-05-01T02:00:16.050Z,1016.00
2023-05-01T02:01:16.063Z,1015.98
2023-05-01T02:02:16.074Z,1015.99
2023-05-01T02:03:17.647Z,1016.00
2023-05-01T02:04:16.083Z,1015.98
2023-05-01T02:05:16.003Z,1015.96
2023-05-01T02:06:16.059Z,1015.92
2023-05-01T02:07:15.995Z,1015.92
2023-05-01T02:08:15.996Z,1015.91
2023-05-01T02:09:16.998Z,1015.89
2023-05-01T02:10:16.016Z,1015.85
2023-05-01T02:11:15.988Z,1015.88
2023-05-01T02:12:15.993Z,1015.88
2023-05-01T02:13:15.964Z,1015.88
2023-05-01T02:14:15.970Z,1015.87
2023-05-01T02:15:16.968Z,1015.89
2023-05-01T02:16:16.023Z,1015.85
2023-05-01T02:17:16.536Z,1015.84
2023-05-01T02:18:15.943Z,1015.89
2023-05-01T02:19:15.942Z,1015.84
2023-05-01T02:20:15.953Z,1015.81
2023-05-01T02:21:16.940Z,1015.81
2023-05-01T02:22:15.927Z,1015.78
2023-05-01T02:23:15.916Z,1015.80
2023-05-01T02:24:15.917Z,1015.81
2023-05-01T02:25:15.915Z,1015.79
2023-05-01T02:26:15.914Z,1015.80
2023-05-01T02:27:16.919Z,1015.73
2023-05-01T02:28:15.898Z,1015.75
2023-05-01T02:29:16.569Z,1015.75
2023-05-01T02:30:15.886Z,1015.73
2023-05-01T02:31:15.912Z,1015.69
2023-05-01T02:32:15.874Z,1015.71
2023-05-01T02:33:16.871Z,1015.68
2023-05-01T02:34:15.857Z,1015.66
2023-05-01T02:35:15.849Z,1015.68
2023-05-01T02:36:15.869Z,1015.67
2023-05-01T02:37:15.845Z,1015.68
2023-05-01T02:38:15.845Z,1015.63
2023-05-01T02:39:16.872Z,1015.60
2023-05-01T02:40:15.836Z,1015.61
2023-05-01T02:41:15.868Z,1015.61
2023-05-01T02:42:15.819Z,1015.56
2023-05-01T02:43:15.808Z,1015.57
2023-05-01T02:44:15.830Z,1015.56
2023-05-01T02:45:16.810Z,1015.53
2023-05-01T02:46:15.860Z,1015.49
2023-05-01T02:47:15.871Z,1015.53
2023-05-01T02:48:16.584Z,1015.50
2023-05-01T02:49:15.780Z,1015.44
2023-05-01T02:50:16.540Z,1015.49
2023-05-01T02:51:16.798Z,1015.45
2023-05-01T02:52:15.776Z,1015.44
2023-05-01T02:53:16.997Z,1015.46
2023-05-01T02:54:15.792Z,1015.46
2023-05-01T02:55:15.774Z,1015.41
2023-05-01T02:56:15.750Z,1015.44
2023-05-01T02:57:18.093Z,1015.42
2023-05-01T02:58:15.774Z,1015.37
2023-05-01T02:59:15.746Z,1015.37
2023-05-01T03:00:15.721Z,1015.36
2023-05-01T03:01:15.790Z,1015.35
2023-05-01T03:02:15.712Z,1015.33
2023-05-01T03:03:16.762Z,1015.33
2023-05-01T03:04:15.835Z,1015.33
2023-05-01T03:05:15.707Z,1015.30
2023-05-01T03:06:15.764Z,1015.28
2023-05-01T03:07:15.692Z,1015.27
2023-05-01T03:08:16.218Z,1015.28
2023-05-01T03:09:16.714Z,1015.25
2023-05-01T03:10:15.689Z,1015.26
2023-05-01T03:11:17.124Z,1015.25
2023-05-01T03:12:15.667Z,1015.26
2023-05-01T03:13:15.653Z,1015.20
2023-05-01T03:14:15.646Z,1015.17
2023-05-01T03:15:16.653Z,1015.18
2023-05-01T03:16:15.662Z,1015.15
2023-05-01T03:17:16.541Z,1015.15
2023-05-01T03:18:15.643Z,1015.15
2023-05-01T03:19:15.632Z,1015.17
2023-05-01T03:20:15.623Z,1015.12
2023-05-01T03:21:16.646Z,1015.15
2023-05-01T03:22:15.623Z,1015.10
2023-05-01T03:23:15.600Z,1015.05
2023-05-01T03:24:15.592Z,1015.06
2023-05-01T03:25:16.098Z,1015.04
2023-05-01T03:26:15.578Z,1015.04
2023-05-01T03:27:18.549Z,1015.04
2023-05-01T03:28:15.583Z,1015.04
2023-05-01T03:29:15.567Z,1015.01
2023-05-01T03:30:15.551Z,1015.05
2023-05-01T03:31:15.553Z,1015.04
2023-05-01T03:32:15.646Z,1015.03
2023-05-01T03:33:16.553Z,1015.04
2023-05-01T03:34:15.536Z,1015.01
2023-05-01T03:35:15.672Z,1015.00
2023-05-01T03:36:15.544Z,1015.00
2023-05-01T03:37:15.542Z,1014.98
2023-05-01T03:38:15.548Z,1015.00
2023-05-01T03:39:16.545Z,1014.96
2023-05-01T03:40:15.495Z,1015.00
2023-05-01T03:41:15.495Z,1015.00
2023-05-01T03:42:16.005Z,1015.00
2023-05-01T03:43:15.500Z,1015.00
2023-05-01T03:44:15.486Z,1015.00
2023-05-01T03:45:16.535Z,1015.00
2023-05-01T03:46:16.066Z,1015.07
2023-05-01T03:47:15.458Z,1015.03
2023-05-01T03:48:15.470Z,1015.03
2023-05-01T03:49:15.462Z,1014.99
2023-05-01T03:50:15.487Z,1014.96
2023-05-01T03:51:17.043Z,1014.98
2023-05-01T03:52:15.448Z,1014.98
2023-05-01T03:53:15.501Z,1015.01
2023-05-01T03:54:15.436Z,1015.02
2023-05-01T03:55:15.504Z,1015.02
2023-05-01T03:56:15.442Z,1015.03
2023-05-01T03:57:16.454Z,1015.01
2023-05-01T03:58:15.406Z,1015.00
2023-05-01T03:59:15.402Z,1015.02
2023-05-01T04:00:15.420Z,1015.01
2023-05-01T04:01:15.408Z,1014.99
2023-05-01T04:02:15.480Z,1015.00
2023-05-01T04:03:16.502Z,1014.99
2023-05-01T04:04:15.438Z,1015.00
2023-05-01T04:05:15.400Z,1015.00
2023-05-01T04:06:15.395Z,1014.99
2023-05-01T04:07:15.377Z,1015.03
2023-05-01T04:08:15.376Z,1014.97
2023-05-01T04:09:16.349Z,1014.99
2023-05-01T04:10:15.363Z,1014.95
2023-05-01T04:11:15.330Z,1014.97
2023-05-01T04:12:15.364Z,1014.97
2023-05-01T04:13:16.101Z,1014.95
2023-05-01T04:14:15.321Z,1014.93
2023-05-01T04:15:16.339Z,1014.98
2023-05-01T04:16:15.343Z,1014.97
2023-05-01T04:17:15.327Z,1014.96
2023-05-01T04:18:16.139Z,1014.99
2023-05-01T04:19:15.313Z,1014.92
2023-05-01T04:20:15.300Z,1014.93
2023-05-01T04:21:16.315Z,1014.93
2023-05-01T04:22:15.276Z,1014.94
2023-05-01T04:23:15.291Z,1014.92
2023-05-01T04:24:15.289Z,1014.95
2023-05-01T04:25:15.280Z,1014.93
2023-05-01T04:26:15.271Z,1014.92
2023-05-01T04:27:16.266Z,1014.91
2023-05-01T04:28:15.229Z,1014.90
2023-05-01T04:29:16.054Z,1014.93
2023-05-01T04:30:15.227Z,1014.93
2023-05-01T04:31:15.317Z,1014.91
2023-05-01T04:32:15.252Z,1014.90
2023-05-01T04:33:16.259Z,1014.91
2023-05-01T04:34:15.240Z,1014.90
2023-05-01T04:35:15.237Z,1014.91
2023-05-01T04:36:15.213Z,1014.86
2023-05-01T04:37:15.185Z,1014.86
2023-05-01T04:38:15.187Z,1014.85
2023-05-01T04:39:16.196Z,1014.84
2023-05-01T04:40:15.186Z,1014.86
2023-05-01T04:41:15.169Z,1014.85
2023-05-01T04:42:15.178Z,1014.83
2023-05-01T04:43:15.208Z,1014.83
2023-05-01T04:44:15.175Z,1014.85
2023-05-01T04:45:16.184Z,1014.80
2023-05-01T04:46:15.195Z,1014.83
2023-05-01T04:47:15.143Z,1014.77
2023-05-01T04:48:16.102Z,1014.80
2023-05-01T04:49:15.132Z,1014.81
2023-05-01T04:50:15.125Z,1014.82
2023-05-01T04:51:16.173Z,1014.80
2023-05-01T04:52:15.145Z,1014.82
2023-05-01T04:53:15.138Z,1014.81
2023-05-01T04:54:15.110Z,1014.79
2023-05-01T04:55:15.125Z,1014.81
2023-05-01T04:56:15.117Z,1014.79
2023-05-01T04:57:17.048Z,1014.78
2023-05-01T04:58:15.121Z,1014.80
2023-05-01T04:59:15.130Z,1014.80
2023-05-01T05:00:15.095Z,1014.78
2023-05-01T05:01:15.168Z,1014.82
2023-05-01T05:02:15.121Z,1014.79
2023-05-01T05:03:16.163Z,1014.76
2023-05-01T05:04:15.092Z,1014.77
2023-05-01T05:05:15.051Z,1014.78
2023-05-01T05:06:15.150Z,1014.70
2023-05-01T05:07:15.046Z,1014.74
2023-05-01T05:08:15.083Z,1014.72
2023-05-01T05:09:18.688Z,1014.76
2023-05-01T05:10:15.022Z,1014.77
2023-05-01T05:11:15.045Z,1014.74
2023-05-01T05:12:15.015Z,1014.79
2023-05-01T05:13:15.570Z,1014.74
2023-05-01T05:14:15.009Z,1014.74
2023-05-01T05:15:16.015Z,1014.72
2023-05-01T05:16:16.153Z,1014.73
2023-05-01T05:17:15.013Z,1014.73
2023-05-01T05:18:15.042Z,1014.73
2023-05-01T05:19:15.007Z,1014.68
2023-05-01T05:20:15.693Z,1014.71
2023-05-01T05:21:16.035Z,1014.68
2023-05-01T05:22:14.988Z,1014.67
2023-05-01T05:23:14.973Z,1014.64
2023-05-01T05:24:14.962Z,1014.67
2023-05-01T05:25:14.962Z,1014.66
2023-05-01T05:26:14.962Z,1014.66
2023-05-01T05:27:16.040Z,1014.67
2023-05-01T05:28:14.933Z,1014.58
2023-05-01T05:29:14.947Z,1014.56
2023-05-01T05:30:14.920Z,1014.58
2023-05-01T05:31:14.916Z,1014.54
2023-05-01T05:32:14.951Z,1014.56
2023-05-01T05:33:15.956Z,1014.50
2023-05-01T05:34:15.553Z,1014.55
2023-05-01T05:35:14.921Z,1014.49
2023-05-01T05:36:14.886Z,1014.48
2023-05-01T05:37:14.891Z,1014.49
2023-05-01T05:38:14.883Z,1014.51
2023-05-01T05:39:15.888Z,1014.48
2023-05-01T05:40:16.138Z,1014.50
2023-05-01T05:41:14.881Z,1014.49
2023-05-01T05:42:14.854Z,1014.47
2023-05-01T05:43:14.874Z,1014.49
2023-05-01T05:44:14.868Z,1014.41
2023-05-01T05:45:15.922Z,1014.46
2023-05-01T05:46:14.924Z,1014.53
2023-05-01T05:47:14.880Z,1014.74
2023-05-01T05:48:14.912Z,1014.83
2023-05-01T05:49:14.833Z,1014.81
2023-05-01T05:50:14.838Z,1014.82
2023-05-01T05:51:15.867Z,1014.87
2023-05-01T05:52:15.568Z,1014.90
2023-05-01T05:53:14.840Z,1014.91
2023-05-01T05:54:14.867Z,1014.96
2023-05-01T05:55:14.863Z,1015.03
2023-05-01T05:56:14.848Z,1014.96
2023-05-01T05:57:16.562Z,1014.98
2023-05-01T05:58:14.883Z,1014.98
2023-05-01T05:59:17.288Z,1014.96
2023-05-01T06:00:14.901Z,1015.04
2023-05-01T06:01:14.874Z,1015.05
2023-05-01T06:02:14.938Z,1015.00
2023-05-01T06:03:16.017Z,1015.05
2023-05-01T06:04:14.888Z,1015.01
2023-05-01T06:05:14.910Z,1015.01
2023-05-01T06:06:14.920Z,1015.03
2023-05-01T06:07:14.889Z,1015.13
2023-05-01T06:08:14.899Z,1015.08
2023-05-01T06:09:15.930Z,1015.06
2023-05-01T06:10:14.910Z,1015.19
2023-05-01T06:11:14.923Z,1015.16
2023-05-01T06:12:14.921Z,1015.00
2023-05-01T06:13:15.068Z,1014.81
2023-05-01T06:14:14.940Z,1014.73
2023-05-01T06:15:15.971Z,1014.65
2023-05-01T06:16:15.680Z,1014.73
2023-05-01T06:17:14.974Z,1014.68
2023-05-01T06:18:15.632Z,1014.63
2023-05-01T06:19:15.577Z,1014.65
2023-05-01T06:20:15.019Z,1014.63
2023-05-01T06:21:16.026Z,1014.67
2023-05-01T06:22:15.030Z,1014.64
2023-05-01T06:23:15.584Z,1014.70
2023-05-01T06:24:15.057Z,1014.72
2023-05-01T06:25:15.054Z,1014.69
2023-05-01T06:26:15.073Z,1014.68
2023-05-01T06:27:16.588Z,1014.71
2023-05-01T06:28:15.110Z,1014.73
2023-05-01T06:29:15.587Z,1014.79
2023-05-01T06:30:15.589Z,1014.71
2023-05-01T06:31:15.175Z,1014.71
2023-05-01T06:32:15.134Z,1014.69
2023-05-01T06:33:16.182Z,1014.63
2023-05-01T06:34:15.148Z,1014.70
2023-05-01T06:35:15.145Z,1014.68
2023-05-01T06:36:15.166Z,1014.66
2023-05-01T06:37:15.194Z,1014.70
2023-05-01T06:38:15.176Z,1014.68
2023-05-01T06:39:16.232Z,1014.61
2023-05-01T06:40:16.101Z,1014.65
2023-05-01T06:41:15.221Z,1014.64
2023-05-01T06:42:15.232Z,1014.63
2023-05-01T06:43:15.272Z,1014.64
2023-05-01T06:44:15.237Z,1014.63
2023-05-01T06:45:16.322Z,1014.60
2023-05-01T06:46:15.336Z,1014.61
2023-05-01T06:47:15.344Z,1014.66
2023-05-01T06:48:15.367Z,1014.64
2023-05-01T06:49:15.345Z,1014.63
2023-05-01T06:50:16.689Z,1014.65
2023-05-01T06:51:16.355Z,1014.61
2023-05-01T06:52:15.382Z,1014.61
2023-05-01T06:53:15.360Z,1014.60
2023-05-01T06:54:15.378Z,1014.57
2023-05-01T06:55:15.374Z,1014.58
2023-05-01T06:56:15.497Z,1014.56
2023-05-01T06:57:16.553Z,1014.55
2023-05-01T06:58:23.359Z,1014.59
2023-05-01T06:59:15.424Z,1014.58
2023-05-01T07:00:15.433Z,1014.60
2023-05-01T07:01:15.473Z,1014.55
2023-05-01T07:02:16.135Z,1014.52
2023-05-01T07:03:16.586Z,1014.56
2023-05-01T07:04:15.475Z,1014.53
2023-05-01T07:05:16.104Z,1014.55
2023-05-01T07:06:36.893Z,1014.54
2023-05-01T07:07:17.633Z,1014.52
2023-05-01T07:08:16.584Z,1014.53
2023-05-01T07:09:15.531Z,1014.48
2023-05-01T07:10:15.540Z,1014.51
2023-05-01T07:11:15.584Z,1014.50
2023-05-01T07:12:15.558Z,1014.49
2023-05-01T07:13:15.579Z,1014.48
2023-05-01T07:14:16.611Z,1014.49
2023-05-01T07:15:15.595Z,1014.45
2023-05-01T07:16:15.690Z,1014.48
2023-05-01T07:17:16.674Z,1014.49
2023-05-01T07:18:15.648Z,1014.50
2023-05-01T07:19:16.633Z,1014.46
2023-05-01T07:20:17.179Z,1014.47
2023-05-01T07:21:15.668Z,1014.48
2023-05-01T07:22:15.678Z,1014.45
2023-05-01T07:23:15.682Z,1014.44
2023-05-01T07:24:15.682Z,1014.47
2023-05-01T07:25:15.751Z,1014.47
2023-05-01T07:26:16.776Z,1014.44
2023-05-01T07:27:15.711Z,1014.47
2023-05-01T07:28:16.731Z,1014.47
2023-05-01T07:29:15.788Z,1014.45
2023-05-01T07:30:15.754Z,1014.42
2023-05-01T07:31:15.816Z,1014.41
2023-05-01T07:32:17.356Z,1014.42
2023-05-01T07:33:15.824Z,1014.40
2023-05-01T07:34:15.787Z,1014.34
2023-05-01T07:35:15.809Z,1014.30
2023-05-01T07:36:15.813Z,1014.28
2023-05-01T07:37:15.826Z,1014.29
2023-05-01T07:38:16.857Z,1014.26
2023-05-01T07:39:15.845Z,1014.26
2023-05-01T07:40:15.862Z,1014.25
2023-05-01T07:41:15.900Z,1014.23
2023-05-01T07:42:15.895Z,1014.21
2023-05-01T07:43:15.897Z,1014.20
2023-05-01T07:44:17.743Z,1014.19
2023-05-01T07:45:17.138Z,1014.20
2023-05-01T07:46:16.738Z,1014.23
2023-05-01T07:47:15.945Z,1014.17
2023-05-01T07:48:15.997Z,1014.19
2023-05-01T07:49:16.641Z,1014.15
2023-05-01T07:50:16.996Z,1014.14
2023-05-01T07:51:15.956Z,1014.17
2023-05-01T07:52:15.987Z,1014.17
2023-05-01T07:53:16.642Z,1014.14
2023-05-01T07:54:15.995Z,1014.15
2023-05-01T07:55:16.012Z,1014.13
2023-05-01T07:56:17.009Z,1014.13
2023-05-01T07:57:16.009Z,1014.04
2023-05-01T07:58:16.551Z,1014.05
2023-05-01T07:59:16.034Z,1014.03
2023-05-01T08:00:16.032Z,1014.03
2023-05-01T08:01:16.040Z,1014.03
2023-05-01T08:02:17.101Z,1014.01
2023-05-01T08:03:17.249Z,1013.97
2023-05-01T08:04:16.112Z,1013.97
2023-05-01T08:05:16.071Z,1013.97
2023-05-01T08:06:16.131Z,1013.98
2023-05-01T08:07:16.097Z,1013.98
2023-05-01T08:08:17.648Z,1013.94
2023-05-01T08:09:16.103Z,1013.93
2023-05-01T08:10:16.111Z,1013.88
2023-05-01T08:11:16.156Z,1013.91
2023-05-01T08:12:16.657Z,1013.91
2023-05-01T08:13:16.153Z,1013.89
2023-05-01T08:14:17.164Z,1013.88
2023-05-01T08:15:16.245Z,1013.88
2023-05-01T08:16:16.239Z,1013.81
2023-05-01T08:17:16.198Z,1013.81
2023-05-01T08:18:16.167Z,1013.81
2023-05-01T08:19:16.175Z,1013.76
2023-05-01T08:20:17.206Z,1013.81
2023-05-01T08:21:16.196Z,1013.73
2023-05-01T08:22:16.196Z,1013.76
2023-05-01T08:23:16.203Z,1013.77
2023-05-01T08:24:16.209Z,1013.78
2023-05-01T08:25:16.210Z,1013.74
2023-05-01T08:26:17.242Z,1013.72
2023-05-01T08:27:16.243Z,1013.68
2023-05-01T08:28:16.233Z,1013.69
2023-05-01T08:29:16.241Z,1013.72
2023-05-01T08:30:16.250Z,1013.71
2023-05-01T08:31:16.288Z,1013.71
2023-05-01T08:32:17.265Z,1013.70
2023-05-01T08:33:16.255Z,1013.76
2023-05-01T08:34:16.262Z,1013.70
2023-05-01T08:35:16.248Z,1013.68
2023-05-01T08:36:16.279Z,1013.71
2023-05-01T08:37:16.276Z,1013.72
2023-05-01T08:38:18.173Z,1013.68
2023-05-01T08:39:16.271Z,1013.68
2023-05-01T08:40:16.289Z,1013.65
2023-05-01T08:41:16.270Z,1013.63
2023-05-01T08:42:16.261Z,1013.59
2023-05-01T08:43:16.282Z,1013.59
2023-05-01T08:44:17.278Z,1013.60
2023-05-01T08:45:16.307Z,1013.59
2023-05-01T08:46:16.285Z,1013.55
2023-05-01T08:47:16.374Z,1013.53
2023-05-01T08:48:16.302Z,1013.54
2023-05-01T08:49:16.333Z,1013.51
2023-05-01T08:50:18.202Z,1013.49
2023-05-01T08:51:17.500Z,1013.48
2023-05-01T08:52:16.284Z,1013.47
2023-05-01T08:53:16.283Z,1013.45
2023-05-01T08:54:16.282Z,1013.43
2023-05-01T08:55:16.322Z,1013.53
2023-05-01T08:56:17.337Z,1013.47
2023-05-01T08:57:17.266Z,1013.38
2023-05-01T08:58:16.294Z,1013.36
2023-05-01T08:59:16.363Z,1013.38
2023-05-01T09:00:16.292Z,1013.45
2023-05-01T09:01:16.354Z,1013.44
2023-05-01T09:02:17.296Z,1013.43
2023-05-01T09:03:16.449Z,1013.38
2023-05-01T09:04:16.343Z,1013.33
2023-05-01T09:05:16.293Z,1013.32
2023-05-01T09:06:16.355Z,1013.34
2023-05-01T09:07:16.311Z,1013.35
2023-05-01T09:08:17.324Z,1013.32
2023-05-01T09:09:16.302Z,1013.29
2023-05-01T09:10:17.176Z,1013.26
2023-05-01T09:11:16.347Z,1013.27
2023-05-01T09:12:17.175Z,1013.28
2023-05-01T09:13:17.259Z,1013.21
2023-05-01T09:14:17.306Z,1013.15
2023-05-01T09:15:16.312Z,1013.16
2023-05-01T09:16:16.351Z,1013.19
2023-05-01T09:17:16.303Z,1013.14
2023-05-01T09:18:16.345Z,1013.12
2023-05-01T09:19:17.218Z,1013.08
2023-05-01T09:20:18.182Z,1013.10
2023-05-01T09:21:17.762Z,1013.08
2023-05-01T09:22:16.368Z,1013.06
2023-05-01T09:23:16.314Z,1013.03
2023-05-01T09:24:17.179Z,1012.96
2023-05-01T09:25:16.334Z,1012.96
2023-05-01T09:26:17.335Z,1013.02
2023-05-01T09:27:17.208Z,1013.00
2023-05-01T09:28:16.323Z,1012.98
2023-05-01T09:29:16.362Z,1013.03
2023-05-01T09:30:16.326Z,1013.00
2023-05-01T09:31:16.365Z,1013.00
2023-05-01T09:32:17.558Z,1012.96
2023-05-01T09:33:17.249Z,1012.95
2023-05-01T09:34:16.353Z,1012.93
2023-05-01T09:35:16.336Z,1012.87
2023-05-01T09:36:16.452Z,1012.83
2023-05-01T09:37:16.351Z,1012.89
2023-05-01T09:38:17.371Z,1012.86
2023-05-01T09:39:16.326Z,1012.89
2023-05-01T09:40:16.399Z,1012.88
2023-05-01T09:41:17.209Z,1012.89
2023-05-01T09:42:16.327Z,1012.84
2023-05-01T09:43:16.333Z,1012.82
2023-05-01T09:44:17.408Z,1012.77
2023-05-01T09:45:16.418Z,1012.78
2023-05-01T09:46:16.397Z,1012.63
2023-05-01T09:47:16.330Z,1012.75
2023-05-01T09:48:16.335Z,1012.73
2023-05-01T09:49:16.340Z,1012.72
2023-05-01T09:50:19.189Z,1012.72
2023-05-01T09:51:16.346Z,1012.61
2023-05-01T09:52:16.332Z,1012.64
2023-05-01T09:53:16.337Z,1012.67
2023-05-01T09:54:16.333Z,1012.73
2023-05-01T09:55:17.257Z,1012.67
2023-05-01T09:56:17.409Z,1012.64
2023-05-01T09:57:16.380Z,1012.58
2023-05-01T09:58:16.344Z,1012.61
2023-05-01T09:59:16.393Z,1012.57
2023-05-01T10:00:16.399Z,1012.62
2023-05-01T10:01:16.600Z,1012.52
2023-05-01T10:02:17.420Z,1012.51
2023-05-01T10:03:16.520Z,1012.56
2023-05-01T10:04:16.483Z,1012.51
2023-05-01T10:05:16.351Z,1012.47
2023-05-01T10:06:16.371Z,1012.49
2023-05-01T10:07:16.345Z,1012.52
2023-05-01T10:08:17.459Z,1012.54
2023-05-01T10:09:16.414Z,1012.44
2023-05-01T10:10:16.367Z,1012.41
2023-05-01T10:11:16.350Z,1012.37
2023-05-01T10:12:16.340Z,1012.34
2023-05-01T10:13:16.367Z,1012.32
2023-05-01T10:14:17.386Z,1012.33
2023-05-01T10:15:24.459Z,1012.33
2023-05-01T10:16:16.429Z,1012.26
2023-05-01T10:17:16.460Z,1012.29
2023-05-01T10:18:16.405Z,1012.28
2023-05-01T10:19:16.425Z,1012.35
2023-05-01T10:20:17.355Z,1012.30
2023-05-01T10:21:16.418Z,1012.31
2023-05-01T10:22:16.349Z,1012.26
2023-05-01T10:23:17.220Z,1012.23
2023-05-01T10:24:16.442Z,1012.29
2023-05-01T10:25:16.421Z,1012.29
2023-05-01T10:26:17.508Z,1012.26
2023-05-01T10:27:17.229Z,1012.21
2023-05-01T10:28:16.467Z,1012.18
2023-05-01T10:29:17.213Z,1012.16
2023-05-01T10:30:16.452Z,1012.13
2023-05-01T10:31:17.308Z,1012.15
2023-05-01T10:32:17.409Z,1012.12
2023-05-01T10:33:16.433Z,1012.07
2023-05-01T10:34:16.360Z,1012.11
2023-05-01T10:35:16.393Z,1012.01
2023-05-01T10:36:16.359Z,1012.07
2023-05-01T10:37:16.363Z,1012.06
2023-05-01T10:38:18.885Z,1012.06
2023-05-01T10:39:16.348Z,1012.07
2023-05-01T10:40:16.366Z,1012.03
2023-05-01T10:41:16.394Z,1012.03
2023-05-01T10:42:16.369Z,1011.91
2023-05-01T10:43:16.357Z,1012.01
2023-05-01T10:44:17.381Z,1011.92
2023-05-01T10:45:16.373Z,1011.88
2023-05-01T10:46:16.449Z,1011.92
2023-05-01T10:47:16.377Z,1011.95
2023-05-01T10:48:16.388Z,1011.92
2023-05-01T10:49:16.390Z,1011.84
2023-05-01T10:50:17.464Z,1011.82
2023-05-01T10:51:16.465Z,1011.85
2023-05-01T10:52:16.362Z,1011.82
2023-05-01T10:53:16.445Z,1011.78
2023-05-01T10:54:16.423Z,1011.77
2023-05-01T10:55:16.362Z,1011.76
2023-05-01T10:56:17.373Z,1011.73
2023-05-01T10:57:16.392Z,1011.76
2023-05-01T10:58:16.381Z,1011.77
2023-05-01T10:59:16.356Z,1011.80
2023-05-01T11:00:16.424Z,1011.68
2023-05-01T11:01:16.422Z,1011.72
2023-05-01T11:02:17.549Z,1011.66
2023-05-01T11:03:16.479Z,1011.62
2023-05-01T11:04:16.410Z,1011.55
2023-05-01T11:05:23.685Z,1011.55
2023-05-01T11:06:16.516Z,1011.58
2023-05-01T11:07:16.632Z,1011.54
2023-05-01T11:08:17.404Z,1011.55
2023-05-01T11:09:16.378Z,1011.53
2023-05-01T11:10:16.463Z,1011.51
2023-05-01T11:11:16.375Z,1011.52
2023-05-01T11:12:16.379Z,1011.46
2023-05-01T11:13:16.420Z,1011.53
2023-05-01T11:14:17.386Z,1011.53
2023-05-01T11:15:16.400Z,1011.57
2023-05-01T11:16:16.415Z,1011.50
2023-05-01T11:17:16.469Z,1011.45
2023-05-01T11:18:16.418Z,1011.44
2023-05-01T11:19:16.403Z,1011.43
2023-05-01T11:20:17.378Z,1011.37
2023-05-01T11:21:17.231Z,1011.40
2023-05-01T11:22:16.367Z,1011.31
2023-05-01T11:23:16.381Z,1011.32
2023-05-01T11:24:16.352Z,1011.26
2023-05-01T11:25:16.399Z,1011.26
2023-05-01T11:26:17.427Z,1011.28
2023-05-01T11:27:16.365Z,1011.25
2023-05-01T11:28:16.371Z,1011.29
2023-05-01T11:29:16.371Z,1011.24
2023-05-01T11:30:16.381Z,1011.26
2023-05-01T11:31:16.372Z,1011.26
2023-05-01T11:32:17.429Z,1011.19
2023-05-01T11:33:16.385Z,1011.21
2023-05-01T11:34:16.366Z,1011.20
2023-05-01T11:35:16.363Z,1011.18
2023-05-01T11:36:17.228Z,1011.19
2023-05-01T11:37:16.377Z,1011.09
2023-05-01T11:38:17.360Z,1011.05
2023-05-01T11:39:16.361Z,1011.06
2023-05-01T11:40:17.275Z,1010.98
2023-05-01T11:41:18.727Z,1011.01
2023-05-01T11:42:16.389Z,1010.99
2023-05-01T11:43:16.378Z,1010.94
2023-05-01T11:44:17.414Z,1010.97
2023-05-01T11:45:16.378Z,1010.92
2023-05-01T11:46:16.475Z,1010.95
2023-05-01T11:47:16.386Z,1010.93
2023-05-01T11:48:17.307Z,1010.93
2023-05-01T11:49:16.426Z,1010.89
2023-05-01T11:50:18.233Z,1010.88
2023-05-01T11:51:16.393Z,1010.90
2023-05-01T11:52:16.380Z,1010.95
2023-05-01T11:53:16.445Z,1010.97
2023-05-01T11:54:16.381Z,1010.91
2023-05-01T11:55:16.370Z,1010.89
2023-05-01T11:56:25.894Z,1010.89
2023-05-01T11:57:16.509Z,1010.82
2023-05-01T11:58:16.381Z,1010.85
2023-05-01T11:59:16.377Z,1010.84
2023-05-01T12:00:16.421Z,1010.80
2023-05-01T12:01:17.250Z,1010.75
2023-05-01T12:02:17.448Z,1010.78
2023-05-01T12:03:16.620Z,1010.72
2023-05-01T12:04:16.452Z,1010.73
2023-05-01T12:05:16.447Z,1010.69